sensor_id;sensor_type;location;lat;lon;timestamp;P1;durP1;ratioP1;P2;durP2;ratioP2
2610;SDS011;5612;51.134;17.058;2023-03-05T00:01:39;10.10;;;6.73;;
2610;SDS011;5612;51.134;17.058;2023-03-05T00:04:09;9.50;;;7.77;;
2610;SDS011;5612;51.134;17.058;2023-03-05T00:06:41;12.67;;;8.60;;
2610;SDS011;5612;51.134;17.058;2023-03-05T00:09:10;14.53;;;9.80;;
2610;SDS011;5612;51.134;17.058;2023-03-05T00:11:40;11.50;;;8.00;;
2610;SDS011;5612;51.134;17.058;2023-03-05T00:14:09;9.50;;;7.60;;
2610;SDS011;5612;51.134;17.058;2023-03-05T00:16:38;9.23;;;6.80;;
2610;SDS011;5612;51.134;17.058;2023-03-05T00:19:08;7.40;;;5.40;;
2610;SDS011;5612;51.134;17.058;2023-03-05T00:21:40;4.47;;;4.03;;
2610;SDS011;5612;51.134;17.058;2023-03-05T00:24:13;9.17;;;5.57;;
2610;SDS011;5612;51.134;17.058;2023-03-05T00:26:53;6.97;;;5.10;;
2610;SDS011;5612;51.134;17.058;2023-03-05T00:29:22;6.73;;;5.60;;
2610;SDS011;5612;51.134;17.058;2023-03-05T00:31:51;9.10;;;6.17;;
2610;SDS011;5612;51.134;17.058;2023-03-05T00:34:20;6.83;;;5.50;;
2610;SDS011;5612;51.134;17.058;2023-03-05T00:36:50;8.47;;;5.90;;
2610;SDS011;5612;51.134;17.058;2023-03-05T00:39:19;8.80;;;5.60;;
2610;SDS011;5612;51.134;17.058;2023-03-05T00:41:48;10.23;;;6.33;;
2610;SDS011;5612;51.134;17.058;2023-03-05T00:44:17;9.63;;;5.83;;
2610;SDS011;5612;51.134;17.058;2023-03-05T00:46:47;6.30;;;5.50;;
2610;SDS011;5612;51.134;17.058;2023-03-05T00:49:16;6.50;;;4.97;;
2610;SDS011;5612;51.134;17.058;2023-03-05T00:51:44;8.97;;;5.40;;
2610;SDS011;5612;51.134;17.058;2023-03-05T00:54:15;7.37;;;5.50;;
2610;SDS011;5612;51.134;17.058;2023-03-05T00:56:43;9.30;;;5.17;;
2610;SDS011;5612;51.134;17.058;2023-03-05T00:59:13;7.40;;;4.90;;
2610;SDS011;5612;51.134;17.058;2023-03-05T01:01:42;5.90;;;4.30;;
2610;SDS011;5612;51.134;17.058;2023-03-05T01:04:11;6.27;;;4.23;;
2610;SDS011;5612;51.134;17.058;2023-03-05T01:06:40;5.40;;;3.83;;
2610;SDS011;5612;51.134;17.058;2023-03-05T01:09:11;9.20;;;4.03;;
2610;SDS011;5612;51.134;17.058;2023-03-05T01:11:42;9.73;;;4.80;;
2610;SDS011;5612;51.134;17.058;2023-03-05T01:14:11;6.23;;;4.50;;
2610;SDS011;5612;51.134;17.058;2023-03-05T01:16:40;5.00;;;3.73;;
2610;SDS011;5612;51.134;17.058;2023-03-05T01:19:09;6.23;;;4.07;;
2610;SDS011;5612;51.134;17.058;2023-03-05T01:21:38;4.90;;;4.00;;
2610;SDS011;5612;51.134;17.058;2023-03-05T01:24:07;6.07;;;4.13;;
2610;SDS011;5612;51.134;17.058;2023-03-05T01:26:36;4.40;;;3.53;;
2610;SDS011;5612;51.134;17.058;2023-03-05T01:29:07;4.73;;;3.60;;
2610;SDS011;5612;51.134;17.058;2023-03-05T01:31:36;4.57;;;2.87;;
2610;SDS011;5612;51.134;17.058;2023-03-05T01:34:05;4.87;;;3.33;;
2610;SDS011;5612;51.134;17.058;2023-03-05T01:36:34;5.17;;;3.00;;
2610;SDS011;5612;51.134;17.058;2023-03-05T01:39:03;4.17;;;2.80;;
2610;SDS011;5612;51.134;17.058;2023-03-05T01:41:31;3.17;;;2.83;;
2610;SDS011;5612;51.134;17.058;2023-03-05T01:44:01;5.03;;;3.40;;
2610;SDS011;5612;51.134;17.058;2023-03-05T01:46:32;5.37;;;4.23;;
2610;SDS011;5612;51.134;17.058;2023-03-05T01:49:09;5.07;;;3.00;;
2610;SDS011;5612;51.134;17.058;2023-03-05T01:51:44;6.47;;;3.20;;
2610;SDS011;5612;51.134;17.058;2023-03-05T01:54:23;4.10;;;3.20;;
2610;SDS011;5612;51.134;17.058;2023-03-05T01:56:55;4.50;;;2.90;;
2610;SDS011;5612;51.134;17.058;2023-03-05T01:59:26;3.87;;;2.57;;
2610;SDS011;5612;51.134;17.058;2023-03-05T02:01:57;5.23;;;3.00;;
2610;SDS011;5612;51.134;17.058;2023-03-05T02:04:28;3.43;;;2.90;;
2610;SDS011;5612;51.134;17.058;2023-03-05T02:07:03;4.17;;;2.97;;
2610;SDS011;5612;51.134;17.058;2023-03-05T02:09:32;4.70;;;3.03;;
2610;SDS011;5612;51.134;17.058;2023-03-05T02:12:04;5.33;;;3.47;;
2610;SDS011;5612;51.134;17.058;2023-03-05T02:14:33;4.53;;;3.17;;
2610;SDS011;5612;51.134;17.058;2023-03-05T02:17:04;4.57;;;3.60;;
2610;SDS011;5612;51.134;17.058;2023-03-05T02:19:45;3.83;;;2.90;;
2610;SDS011;5612;51.134;17.058;2023-03-05T02:22:17;5.80;;;3.33;;
2610;SDS011;5612;51.134;17.058;2023-03-05T02:24:47;6.87;;;4.27;;
2610;SDS011;5612;51.134;17.058;2023-03-05T02:27:17;5.90;;;3.20;;
2610;SDS011;5612;51.134;17.058;2023-03-05T02:29:49;5.27;;;3.93;;
2610;SDS011;5612;51.134;17.058;2023-03-05T02:32:19;6.40;;;4.10;;
2610;SDS011;5612;51.134;17.058;2023-03-05T02:34:48;5.00;;;4.00;;
2610;SDS011;5612;51.134;17.058;2023-03-05T02:37:18;4.43;;;3.80;;
2610;SDS011;5612;51.134;17.058;2023-03-05T02:39:47;8.07;;;5.40;;
2610;SDS011;5612;51.134;17.058;2023-03-05T02:42:15;6.93;;;5.27;;
2610;SDS011;5612;51.134;17.058;2023-03-05T02:44:44;8.83;;;4.47;;
2610;SDS011;5612;51.134;17.058;2023-03-05T02:47:13;5.67;;;4.23;;
2610;SDS011;5612;51.134;17.058;2023-03-05T02:49:42;6.33;;;4.10;;
2610;SDS011;5612;51.134;17.058;2023-03-05T02:52:10;4.33;;;3.20;;
2610;SDS011;5612;51.134;17.058;2023-03-05T02:54:41;7.03;;;3.80;;
2610;SDS011;5612;51.134;17.058;2023-03-05T02:57:09;6.83;;;3.50;;
2610;SDS011;5612;51.134;17.058;2023-03-05T02:59:38;3.80;;;3.40;;
2610;SDS011;5612;51.134;17.058;2023-03-05T03:02:07;5.17;;;3.10;;
2610;SDS011;5612;51.134;17.058;2023-03-05T03:04:36;5.17;;;3.20;;
2610;SDS011;5612;51.134;17.058;2023-03-05T03:07:05;2.70;;;2.47;;
2610;SDS011;5612;51.134;17.058;2023-03-05T03:09:34;5.10;;;2.37;;
2610;SDS011;5612;51.134;17.058;2023-03-05T03:12:04;2.70;;;2.10;;
2610;SDS011;5612;51.134;17.058;2023-03-05T03:14:34;2.10;;;1.90;;
2610;SDS011;5612;51.134;17.058;2023-03-05T03:17:05;3.57;;;2.27;;
2610;SDS011;5612;51.134;17.058;2023-03-05T03:19:34;3.60;;;3.30;;
2610;SDS011;5612;51.134;17.058;2023-03-05T03:22:03;4.60;;;2.40;;
2610;SDS011;5612;51.134;17.058;2023-03-05T03:24:33;3.07;;;2.27;;
2610;SDS011;5612;51.134;17.058;2023-03-05T03:27:04;3.87;;;1.67;;
2610;SDS011;5612;51.134;17.058;2023-03-05T03:29:34;3.73;;;1.77;;
2610;SDS011;5612;51.134;17.058;2023-03-05T03:32:03;1.80;;;1.70;;
2610;SDS011;5612;51.134;17.058;2023-03-05T03:34:32;3.20;;;2.27;;
2610;SDS011;5612;51.134;17.058;2023-03-05T03:37:01;2.80;;;1.93;;
2610;SDS011;5612;51.134;17.058;2023-03-05T03:39:29;3.17;;;1.60;;
2610;SDS011;5612;51.134;17.058;2023-03-05T03:41:58;1.87;;;1.40;;
2610;SDS011;5612;51.134;17.058;2023-03-05T03:44:28;2.87;;;2.10;;
2610;SDS011;5612;51.134;17.058;2023-03-05T03:46:57;4.10;;;1.80;;
2610;SDS011;5612;51.134;17.058;2023-03-05T03:49:26;3.83;;;1.93;;
2610;SDS011;5612;51.134;17.058;2023-03-05T03:51:55;4.50;;;2.30;;
2610;SDS011;5612;51.134;17.058;2023-03-05T03:54:23;3.03;;;1.93;;
2610;SDS011;5612;51.134;17.058;2023-03-05T03:56:52;1.80;;;1.70;;
2610;SDS011;5612;51.134;17.058;2023-03-05T03:59:21;3.87;;;1.60;;
2610;SDS011;5612;51.134;17.058;2023-03-05T04:01:51;2.27;;;1.60;;
2610;SDS011;5612;51.134;17.058;2023-03-05T04:04:20;2.20;;;1.97;;
2610;SDS011;5612;51.134;17.058;2023-03-05T04:06:49;3.43;;;2.47;;
2610;SDS011;5612;51.134;17.058;2023-03-05T04:09:18;2.43;;;1.90;;
2610;SDS011;5612;51.134;17.058;2023-03-05T04:11:47;3.00;;;2.40;;
2610;SDS011;5612;51.134;17.058;2023-03-05T04:14:15;3.00;;;1.83;;
2610;SDS011;5612;51.134;17.058;2023-03-05T04:16:46;3.10;;;2.70;;
2610;SDS011;5612;51.134;17.058;2023-03-05T04:19:16;5.13;;;2.43;;
2610;SDS011;5612;51.134;17.058;2023-03-05T04:21:45;4.90;;;2.40;;
2610;SDS011;5612;51.134;17.058;2023-03-05T04:24:13;3.23;;;2.83;;
2610;SDS011;5612;51.134;17.058;2023-03-05T04:26:42;2.80;;;2.00;;
2610;SDS011;5612;51.134;17.058;2023-03-05T04:29:11;4.90;;;3.80;;
2610;SDS011;5612;51.134;17.058;2023-03-05T04:31:39;5.10;;;4.07;;
2610;SDS011;5612;51.134;17.058;2023-03-05T04:34:08;3.90;;;3.00;;
2610;SDS011;5612;51.134;17.058;2023-03-05T04:36:38;4.43;;;3.10;;
2610;SDS011;5612;51.134;17.058;2023-03-05T04:39:07;5.37;;;3.40;;
2610;SDS011;5612;51.134;17.058;2023-03-05T04:41:36;4.80;;;3.10;;
2610;SDS011;5612;51.134;17.058;2023-03-05T04:44:04;5.50;;;3.57;;
2610;SDS011;5612;51.134;17.058;2023-03-05T04:46:33;8.77;;;3.60;;
2610;SDS011;5612;51.134;17.058;2023-03-05T04:49:02;4.30;;;2.60;;
2610;SDS011;5612;51.134;17.058;2023-03-05T04:51:31;4.00;;;2.83;;
2610;SDS011;5612;51.134;17.058;2023-03-05T04:54:01;3.93;;;3.57;;
2610;SDS011;5612;51.134;17.058;2023-03-05T04:56:30;5.20;;;3.30;;
2610;SDS011;5612;51.134;17.058;2023-03-05T04:58:59;4.20;;;3.00;;
2610;SDS011;5612;51.134;17.058;2023-03-05T05:01:28;3.47;;;3.17;;
2610;SDS011;5612;51.134;17.058;2023-03-05T05:03:56;3.60;;;3.03;;
2610;SDS011;5612;51.134;17.058;2023-03-05T05:06:25;6.60;;;5.57;;
2610;SDS011;5612;51.134;17.058;2023-03-05T05:08:54;4.53;;;4.13;;
2610;SDS011;5612;51.134;17.058;2023-03-05T05:11:24;4.73;;;4.10;;
2610;SDS011;5612;51.134;17.058;2023-03-05T05:13:53;8.90;;;4.50;;
2610;SDS011;5612;51.134;17.058;2023-03-05T05:16:21;5.80;;;2.80;;
2610;SDS011;5612;51.134;17.058;2023-03-05T05:18:51;4.70;;;3.60;;
2610;SDS011;5612;51.134;17.058;2023-03-05T05:21:19;4.20;;;3.13;;
2610;SDS011;5612;51.134;17.058;2023-03-05T05:23:49;7.17;;;3.03;;
2610;SDS011;5612;51.134;17.058;2023-03-05T05:26:17;4.70;;;3.40;;
2610;SDS011;5612;51.134;17.058;2023-03-05T05:28:48;8.10;;;3.23;;
2610;SDS011;5612;51.134;17.058;2023-03-05T05:31:16;2.90;;;2.70;;
2610;SDS011;5612;51.134;17.058;2023-03-05T05:33:46;4.03;;;2.87;;
2610;SDS011;5612;51.134;17.058;2023-03-05T05:36:16;6.50;;;3.80;;
2610;SDS011;5612;51.134;17.058;2023-03-05T05:38:48;4.33;;;3.93;;
2610;SDS011;5612;51.134;17.058;2023-03-05T05:41:17;6.00;;;3.20;;
2610;SDS011;5612;51.134;17.058;2023-03-05T05:43:48;3.43;;;3.23;;
2610;SDS011;5612;51.134;17.058;2023-03-05T05:46:18;3.87;;;3.37;;
2610;SDS011;5612;51.134;17.058;2023-03-05T05:48:47;4.97;;;3.30;;
2610;SDS011;5612;51.134;17.058;2023-03-05T05:51:17;5.20;;;3.10;;
2610;SDS011;5612;51.134;17.058;2023-03-05T05:53:47;4.10;;;3.63;;
2610;SDS011;5612;51.134;17.058;2023-03-05T05:56:17;4.37;;;3.20;;
2610;SDS011;5612;51.134;17.058;2023-03-05T05:58:47;5.20;;;2.83;;
2610;SDS011;5612;51.134;17.058;2023-03-05T06:01:17;4.60;;;3.23;;
2610;SDS011;5612;51.134;17.058;2023-03-05T06:03:48;4.00;;;3.70;;
2610;SDS011;5612;51.134;17.058;2023-03-05T06:06:17;6.73;;;3.43;;
2610;SDS011;5612;51.134;17.058;2023-03-05T06:08:47;4.87;;;4.10;;
2610;SDS011;5612;51.134;17.058;2023-03-05T06:11:17;4.27;;;3.97;;
2610;SDS011;5612;51.134;17.058;2023-03-05T06:13:47;5.17;;;4.20;;
2610;SDS011;5612;51.134;17.058;2023-03-05T06:16:18;5.60;;;4.63;;
2610;SDS011;5612;51.134;17.058;2023-03-05T06:18:49;10.57;;;9.63;;
2610;SDS011;5612;51.134;17.058;2023-03-05T06:21:19;14.47;;;8.00;;
2610;SDS011;5612;51.134;17.058;2023-03-05T06:23:49;9.10;;;7.03;;
2610;SDS011;5612;51.134;17.058;2023-03-05T06:26:19;9.60;;;7.00;;
2610;SDS011;5612;51.134;17.058;2023-03-05T06:28:51;13.40;;;7.30;;
2610;SDS011;5612;51.134;17.058;2023-03-05T06:31:21;16.93;;;8.07;;
2610;SDS011;5612;51.134;17.058;2023-03-05T06:33:51;14.27;;;8.07;;
2610;SDS011;5612;51.134;17.058;2023-03-05T06:36:22;18.00;;;9.80;;
2610;SDS011;5612;51.134;17.058;2023-03-05T06:38:52;21.60;;;9.83;;
2610;SDS011;5612;51.134;17.058;2023-03-05T06:41:21;14.50;;;8.57;;
2610;SDS011;5612;51.134;17.058;2023-03-05T06:43:53;16.30;;;8.60;;
2610;SDS011;5612;51.134;17.058;2023-03-05T06:46:23;15.07;;;9.97;;
2610;SDS011;5612;51.134;17.058;2023-03-05T06:48:53;16.73;;;10.50;;
2610;SDS011;5612;51.134;17.058;2023-03-05T06:51:24;15.23;;;8.20;;
2610;SDS011;5612;51.134;17.058;2023-03-05T06:53:55;14.43;;;9.60;;
2610;SDS011;5612;51.134;17.058;2023-03-05T06:56:26;13.47;;;11.30;;
2610;SDS011;5612;51.134;17.058;2023-03-05T06:58:56;11.60;;;7.73;;
2610;SDS011;5612;51.134;17.058;2023-03-05T07:01:25;12.13;;;8.20;;
2610;SDS011;5612;51.134;17.058;2023-03-05T07:03:54;14.27;;;9.93;;
2610;SDS011;5612;51.134;17.058;2023-03-05T07:06:25;20.00;;;8.90;;
2610;SDS011;5612;51.134;17.058;2023-03-05T07:08:54;13.20;;;8.60;;
2610;SDS011;5612;51.134;17.058;2023-03-05T07:11:23;16.50;;;8.90;;
2610;SDS011;5612;51.134;17.058;2023-03-05T07:13:52;18.00;;;9.63;;
2610;SDS011;5612;51.134;17.058;2023-03-05T07:16:23;15.33;;;9.47;;
2610;SDS011;5612;51.134;17.058;2023-03-05T07:18:53;19.63;;;8.57;;
2610;SDS011;5612;51.134;17.058;2023-03-05T07:21:25;16.67;;;9.40;;
2610;SDS011;5612;51.134;17.058;2023-03-05T07:23:56;14.57;;;7.13;;
2610;SDS011;5612;51.134;17.058;2023-03-05T07:26:26;13.07;;;8.43;;
2610;SDS011;5612;51.134;17.058;2023-03-05T07:28:56;16.07;;;7.70;;
2610;SDS011;5612;51.134;17.058;2023-03-05T07:31:26;9.63;;;7.20;;
2610;SDS011;5612;51.134;17.058;2023-03-05T07:33:58;17.60;;;7.70;;
2610;SDS011;5612;51.134;17.058;2023-03-05T07:36:28;6.70;;;5.50;;
2610;SDS011;5612;51.134;17.058;2023-03-05T07:38:57;14.73;;;6.73;;
2610;SDS011;5612;51.134;17.058;2023-03-05T07:41:26;10.23;;;5.17;;
2610;SDS011;5612;51.134;17.058;2023-03-05T07:43:55;5.87;;;5.00;;
2610;SDS011;5612;51.134;17.058;2023-03-05T07:46:25;9.93;;;4.93;;
2610;SDS011;5612;51.134;17.058;2023-03-05T07:48:56;10.73;;;5.20;;
2610;SDS011;5612;51.134;17.058;2023-03-05T07:51:25;12.90;;;5.07;;
2610;SDS011;5612;51.134;17.058;2023-03-05T07:53:55;9.77;;;4.10;;
2610;SDS011;5612;51.134;17.058;2023-03-05T07:56:25;9.60;;;6.27;;
2610;SDS011;5612;51.134;17.058;2023-03-05T07:58:57;10.17;;;4.77;;
2610;SDS011;5612;51.134;17.058;2023-03-05T08:01:28;9.53;;;5.10;;
2610;SDS011;5612;51.134;17.058;2023-03-05T08:03:57;7.37;;;3.47;;
2610;SDS011;5612;51.134;17.058;2023-03-05T08:06:26;4.60;;;2.90;;
2610;SDS011;5612;51.134;17.058;2023-03-05T08:08:56;4.37;;;2.87;;
2610;SDS011;5612;51.134;17.058;2023-03-05T08:11:25;5.03;;;3.23;;
2610;SDS011;5612;51.134;17.058;2023-03-05T08:13:55;6.23;;;3.50;;
2610;SDS011;5612;51.134;17.058;2023-03-05T08:16:25;7.07;;;3.67;;
2610;SDS011;5612;51.134;17.058;2023-03-05T08:18:56;6.97;;;2.67;;
2610;SDS011;5612;51.134;17.058;2023-03-05T08:21:26;3.47;;;2.03;;
2610;SDS011;5612;51.134;17.058;2023-03-05T08:23:56;2.67;;;1.87;;
2610;SDS011;5612;51.134;17.058;2023-03-05T08:26:26;3.37;;;1.47;;
2610;SDS011;5612;51.134;17.058;2023-03-05T08:28:56;2.87;;;1.73;;
2610;SDS011;5612;51.134;17.058;2023-03-05T08:31:26;4.73;;;1.33;;
2610;SDS011;5612;51.134;17.058;2023-03-05T08:33:58;3.63;;;1.57;;
2610;SDS011;5612;51.134;17.058;2023-03-05T08:36:28;1.90;;;1.70;;
2610;SDS011;5612;51.134;17.058;2023-03-05T08:38:57;5.53;;;2.67;;
2610;SDS011;5612;51.134;17.058;2023-03-05T08:41:26;4.07;;;2.50;;
2610;SDS011;5612;51.134;17.058;2023-03-05T08:43:55;5.60;;;2.73;;
2610;SDS011;5612;51.134;17.058;2023-03-05T08:46:24;6.43;;;2.80;;
2610;SDS011;5612;51.134;17.058;2023-03-05T08:48:53;6.43;;;3.07;;
2610;SDS011;5612;51.134;17.058;2023-03-05T08:51:23;5.23;;;3.40;;
2610;SDS011;5612;51.134;17.058;2023-03-05T08:53:57;8.60;;;4.60;;
2610;SDS011;5612;51.134;17.058;2023-03-05T08:56:27;9.20;;;3.37;;
2610;SDS011;5612;51.134;17.058;2023-03-05T08:58:57;6.50;;;3.33;;
2610;SDS011;5612;51.134;17.058;2023-03-05T09:01:26;10.30;;;3.70;;
2610;SDS011;5612;51.134;17.058;2023-03-05T09:03:56;4.00;;;3.27;;
2610;SDS011;5612;51.134;17.058;2023-03-05T09:06:33;6.07;;;3.87;;
2610;SDS011;5612;51.134;17.058;2023-03-05T09:09:06;7.20;;;4.30;;
2610;SDS011;5612;51.134;17.058;2023-03-05T09:11:35;6.23;;;3.60;;
2610;SDS011;5612;51.134;17.058;2023-03-05T09:14:04;7.80;;;5.17;;
2610;SDS011;5612;51.134;17.058;2023-03-05T09:16:35;5.57;;;3.50;;
2610;SDS011;5612;51.134;17.058;2023-03-05T09:19:06;10.23;;;4.27;;
2610;SDS011;5612;51.134;17.058;2023-03-05T09:21:39;5.60;;;4.07;;
2610;SDS011;5612;51.134;17.058;2023-03-05T09:24:08;8.20;;;5.67;;
2610;SDS011;5612;51.134;17.058;2023-03-05T09:26:37;11.20;;;6.00;;
2610;SDS011;5612;51.134;17.058;2023-03-05T09:29:07;10.83;;;6.13;;
2610;SDS011;5612;51.134;17.058;2023-03-05T09:31:36;15.80;;;5.93;;
2610;SDS011;5612;51.134;17.058;2023-03-05T09:34:06;5.60;;;4.20;;
2610;SDS011;5612;51.134;17.058;2023-03-05T09:36:35;7.80;;;5.53;;
2610;SDS011;5612;51.134;17.058;2023-03-05T09:39:05;7.10;;;4.70;;
2610;SDS011;5612;51.134;17.058;2023-03-05T09:41:37;9.30;;;4.57;;
2610;SDS011;5612;51.134;17.058;2023-03-05T09:44:25;6.47;;;4.67;;
2610;SDS011;5612;51.134;17.058;2023-03-05T09:47:06;7.87;;;4.73;;
2610;SDS011;5612;51.134;17.058;2023-03-05T09:49:47;7.13;;;4.43;;
2610;SDS011;5612;51.134;17.058;2023-03-05T09:52:24;4.83;;;3.90;;
2610;SDS011;5612;51.134;17.058;2023-03-05T09:55:03;10.07;;;4.00;;
2610;SDS011;5612;51.134;17.058;2023-03-05T09:57:38;9.87;;;4.63;;
2610;SDS011;5612;51.134;17.058;2023-03-05T10:00:15;5.50;;;4.20;;
2610;SDS011;5612;51.134;17.058;2023-03-05T10:02:58;7.33;;;4.77;;
2610;SDS011;5612;51.134;17.058;2023-03-05T10:05:44;6.63;;;4.30;;
2610;SDS011;5612;51.134;17.058;2023-03-05T10:08:27;6.33;;;4.40;;
2610;SDS011;5612;51.134;17.058;2023-03-05T10:11:16;7.50;;;4.47;;
2610;SDS011;5612;51.134;17.058;2023-03-05T10:14:11;10.40;;;5.37;;
2610;SDS011;5612;51.134;17.058;2023-03-05T10:16:52;4.83;;;3.70;;
2610;SDS011;5612;51.134;17.058;2023-03-05T10:19:40;5.80;;;3.97;;
2610;SDS011;5612;51.134;17.058;2023-03-05T10:22:23;9.53;;;4.27;;
2610;SDS011;5612;51.134;17.058;2023-03-05T10:25:02;6.97;;;4.70;;
2610;SDS011;5612;51.134;17.058;2023-03-05T10:27:45;5.30;;;3.57;;
2610;SDS011;5612;51.134;17.058;2023-03-05T10:30:22;4.27;;;3.87;;
2610;SDS011;5612;51.134;17.058;2023-03-05T10:33:02;6.53;;;4.50;;
2610;SDS011;5612;51.134;17.058;2023-03-05T10:35:44;7.07;;;5.40;;
2610;SDS011;5612;51.134;17.058;2023-03-05T10:41:47;6.77;;;4.77;;
2610;SDS011;5612;51.134;17.058;2023-03-05T10:44:32;6.80;;;5.47;;
2610;SDS011;5612;51.134;17.058;2023-03-05T10:47:09;7.73;;;5.37;;
2610;SDS011;5612;51.134;17.058;2023-03-05T10:49:46;6.20;;;4.97;;
2610;SDS011;5612;51.134;17.058;2023-03-05T10:52:18;8.23;;;6.27;;
2610;SDS011;5612;51.134;17.058;2023-03-05T10:54:49;7.50;;;6.07;;
2610;SDS011;5612;51.134;17.058;2023-03-05T10:57:19;11.00;;;7.40;;
2610;SDS011;5612;51.134;17.058;2023-03-05T10:59:52;13.43;;;7.60;;
2610;SDS011;5612;51.134;17.058;2023-03-05T11:02:24;16.73;;;8.03;;
2610;SDS011;5612;51.134;17.058;2023-03-05T11:04:53;6.50;;;4.23;;
2610;SDS011;5612;51.134;17.058;2023-03-05T11:07:33;6.47;;;4.93;;
2610;SDS011;5612;51.134;17.058;2023-03-05T11:10:17;8.90;;;4.73;;
2610;SDS011;5612;51.134;17.058;2023-03-05T11:12:48;6.17;;;4.20;;
2610;SDS011;5612;51.134;17.058;2023-03-05T11:15:28;4.73;;;3.80;;
2610;SDS011;5612;51.134;17.058;2023-03-05T11:18:05;4.80;;;3.30;;
2610;SDS011;5612;51.134;17.058;2023-03-05T11:20:43;4.77;;;3.67;;
2610;SDS011;5612;51.134;17.058;2023-03-05T11:23:13;6.07;;;3.70;;
2610;SDS011;5612;51.134;17.058;2023-03-05T11:25:55;8.53;;;4.73;;
2610;SDS011;5612;51.134;17.058;2023-03-05T11:28:28;5.87;;;4.03;;
2610;SDS011;5612;51.134;17.058;2023-03-05T11:31:03;4.50;;;4.10;;
2610;SDS011;5612;51.134;17.058;2023-03-05T11:33:36;5.20;;;4.70;;
2610;SDS011;5612;51.134;17.058;2023-03-05T11:36:11;6.20;;;4.50;;
2610;SDS011;5612;51.134;17.058;2023-03-05T11:38:50;5.00;;;4.47;;
2610;SDS011;5612;51.134;17.058;2023-03-05T11:41:24;8.33;;;4.50;;
2610;SDS011;5612;51.134;17.058;2023-03-05T11:43:57;6.23;;;4.90;;
2610;SDS011;5612;51.134;17.058;2023-03-05T11:46:39;7.20;;;4.70;;
2610;SDS011;5612;51.134;17.058;2023-03-05T11:49:11;8.00;;;5.50;;
2610;SDS011;5612;51.134;17.058;2023-03-05T11:51:48;5.93;;;4.80;;
2610;SDS011;5612;51.134;17.058;2023-03-05T11:54:25;5.73;;;5.23;;
2610;SDS011;5612;51.134;17.058;2023-03-05T11:57:01;11.93;;;6.77;;
2610;SDS011;5612;51.134;17.058;2023-03-05T11:59:31;8.30;;;7.40;;
2610;SDS011;5612;51.134;17.058;2023-03-05T12:02:13;6.60;;;6.10;;
2610;SDS011;5612;51.134;17.058;2023-03-05T12:04:47;4.80;;;4.37;;
2610;SDS011;5612;51.134;17.058;2023-03-05T12:07:18;6.07;;;5.47;;
2610;SDS011;5612;51.134;17.058;2023-03-05T12:09:53;5.63;;;5.10;;
2610;SDS011;5612;51.134;17.058;2023-03-05T12:12:29;6.40;;;5.37;;
2610;SDS011;5612;51.134;17.058;2023-03-05T12:15:28;14.40;;;9.67;;
2610;SDS011;5612;51.134;17.058;2023-03-05T12:18:16;7.83;;;5.60;;
2610;SDS011;5612;51.134;17.058;2023-03-05T12:20:56;7.60;;;6.30;;
2610;SDS011;5612;51.134;17.058;2023-03-05T12:23:49;6.60;;;5.97;;
2610;SDS011;5612;51.134;17.058;2023-03-05T12:29:26;7.43;;;6.50;;
2610;SDS011;5612;51.134;17.058;2023-03-05T12:31:59;7.53;;;5.90;;
2610;SDS011;5612;51.134;17.058;2023-03-05T12:34:41;10.27;;;7.97;;
2610;SDS011;5612;51.134;17.058;2023-03-05T12:40:21;7.50;;;4.80;;
2610;SDS011;5612;51.134;17.058;2023-03-05T12:42:51;5.77;;;4.40;;
2610;SDS011;5612;51.134;17.058;2023-03-05T12:45:24;6.87;;;5.30;;
2610;SDS011;5612;51.134;17.058;2023-03-05T12:51:26;8.47;;;7.53;;
2610;SDS011;5612;51.134;17.058;2023-03-05T12:54:23;19.87;;;10.37;;
2610;SDS011;5612;51.134;17.058;2023-03-05T12:56:58;11.10;;;7.27;;
2610;SDS011;5612;51.134;17.058;2023-03-05T12:59:31;17.87;;;8.17;;
2610;SDS011;5612;51.134;17.058;2023-03-05T13:05:03;7.57;;;6.10;;
2610;SDS011;5612;51.134;17.058;2023-03-05T13:07:37;8.07;;;7.10;;
2610;SDS011;5612;51.134;17.058;2023-03-05T13:10:20;8.00;;;6.60;;
2610;SDS011;5612;51.134;17.058;2023-03-05T13:12:53;7.20;;;6.50;;
2610;SDS011;5612;51.134;17.058;2023-03-05T13:15:24;6.17;;;5.57;;
2610;SDS011;5612;51.134;17.058;2023-03-05T13:17:55;9.73;;;4.90;;
2610;SDS011;5612;51.134;17.058;2023-03-05T13:20:29;7.63;;;5.23;;
2610;SDS011;5612;51.134;17.058;2023-03-05T13:23:07;9.70;;;6.40;;
2610;SDS011;5612;51.134;17.058;2023-03-05T13:25:56;11.47;;;7.27;;
2610;SDS011;5612;51.134;17.058;2023-03-05T13:28:28;6.23;;;5.50;;
2610;SDS011;5612;51.134;17.058;2023-03-05T13:30:59;6.67;;;5.23;;
2610;SDS011;5612;51.134;17.058;2023-03-05T13:33:31;8.20;;;5.73;;
2610;SDS011;5612;51.134;17.058;2023-03-05T13:36:03;5.57;;;4.33;;
2610;SDS011;5612;51.134;17.058;2023-03-05T13:38:35;9.60;;;8.60;;
2610;SDS011;5612;51.134;17.058;2023-03-05T13:41:16;9.93;;;7.43;;
2610;SDS011;5612;51.134;17.058;2023-03-05T13:43:49;13.60;;;9.20;;
2610;SDS011;5612;51.134;17.058;2023-03-05T13:46:25;6.13;;;5.37;;
2610;SDS011;5612;51.134;17.058;2023-03-05T13:48:58;6.93;;;5.33;;
2610;SDS011;5612;51.134;17.058;2023-03-05T13:51:47;6.83;;;5.80;;
2610;SDS011;5612;51.134;17.058;2023-03-05T13:54:23;8.47;;;5.30;;
2610;SDS011;5612;51.134;17.058;2023-03-05T13:56:56;7.03;;;6.23;;
2610;SDS011;5612;51.134;17.058;2023-03-05T13:59:28;12.60;;;8.80;;
2610;SDS011;5612;51.134;17.058;2023-03-05T14:02:00;11.87;;;8.03;;
2610;SDS011;5612;51.134;17.058;2023-03-05T14:04:39;9.90;;;7.03;;
2610;SDS011;5612;51.134;17.058;2023-03-05T14:07:21;10.57;;;8.10;;
2610;SDS011;5612;51.134;17.058;2023-03-05T14:10:00;6.90;;;5.90;;
2610;SDS011;5612;51.134;17.058;2023-03-05T14:12:35;7.53;;;6.10;;
2610;SDS011;5612;51.134;17.058;2023-03-05T14:15:18;8.03;;;7.10;;
2610;SDS011;5612;51.134;17.058;2023-03-05T14:17:51;6.80;;;5.80;;
2610;SDS011;5612;51.134;17.058;2023-03-05T14:20:35;7.17;;;5.50;;
2610;SDS011;5612;51.134;17.058;2023-03-05T14:28:56;4.67;;;3.87;;
2610;SDS011;5612;51.134;17.058;2023-03-05T14:31:29;4.03;;;3.43;;
2610;SDS011;5612;51.134;17.058;2023-03-05T14:34:02;2.97;;;2.77;;
2610;SDS011;5612;51.134;17.058;2023-03-05T14:36:33;4.63;;;3.67;;
2610;SDS011;5612;51.134;17.058;2023-03-05T14:39:05;4.50;;;2.63;;
2610;SDS011;5612;51.134;17.058;2023-03-05T14:41:39;3.23;;;2.80;;
2610;SDS011;5612;51.134;17.058;2023-03-05T14:44:12;3.60;;;3.30;;
2610;SDS011;5612;51.134;17.058;2023-03-05T14:46:47;2.63;;;2.43;;
2610;SDS011;5612;51.134;17.058;2023-03-05T14:49:21;6.30;;;4.20;;
2610;SDS011;5612;51.134;17.058;2023-03-05T14:51:58;2.33;;;2.13;;
2610;SDS011;5612;51.134;17.058;2023-03-05T14:54:28;8.13;;;5.50;;
2610;SDS011;5612;51.134;17.058;2023-03-05T14:57:05;3.93;;;3.53;;
2610;SDS011;5612;51.134;17.058;2023-03-05T14:59:35;3.87;;;3.50;;
2610;SDS011;5612;51.134;17.058;2023-03-05T15:02:08;7.43;;;6.70;;
2610;SDS011;5612;51.134;17.058;2023-03-05T15:04:45;6.73;;;5.10;;
2610;SDS011;5612;51.134;17.058;2023-03-05T15:07:18;6.33;;;4.30;;
2610;SDS011;5612;51.134;17.058;2023-03-05T15:09:52;6.00;;;4.43;;
2610;SDS011;5612;51.134;17.058;2023-03-05T15:12:24;4.90;;;4.13;;
2610;SDS011;5612;51.134;17.058;2023-03-05T15:14:56;5.70;;;5.20;;
2610;SDS011;5612;51.134;17.058;2023-03-05T15:17:29;5.87;;;5.20;;
2610;SDS011;5612;51.134;17.058;2023-03-05T15:20:04;11.40;;;8.43;;
2610;SDS011;5612;51.134;17.058;2023-03-05T15:22:37;9.70;;;7.93;;
2610;SDS011;5612;51.134;17.058;2023-03-05T15:25:08;7.77;;;6.60;;
2610;SDS011;5612;51.134;17.058;2023-03-05T15:27:45;15.10;;;8.77;;
2610;SDS011;5612;51.134;17.058;2023-03-05T15:30:20;7.27;;;5.83;;
2610;SDS011;5612;51.134;17.058;2023-03-05T15:32:54;10.63;;;8.93;;
2610;SDS011;5612;51.134;17.058;2023-03-05T15:35:28;11.73;;;7.20;;
2610;SDS011;5612;51.134;17.058;2023-03-05T15:37:59;9.20;;;6.00;;
2610;SDS011;5612;51.134;17.058;2023-03-05T15:40:33;12.80;;;6.03;;
2610;SDS011;5612;51.134;17.058;2023-03-05T15:43:23;5.80;;;4.70;;
2610;SDS011;5612;51.134;17.058;2023-03-05T15:45:55;6.10;;;4.83;;
2610;SDS011;5612;51.134;17.058;2023-03-05T15:48:27;4.13;;;3.73;;
2610;SDS011;5612;51.134;17.058;2023-03-05T15:50:59;5.77;;;4.43;;